Time;durP1;ratioP1;P1;durP2;ratioP2;P2;SDS_P1;SDS_P2;PMS_P1;PMS_P2;Temp;Humidity;BMP_temperature;BMP_pressure;BME280_temperature;BME280_humidity;BME280_pressure;Samples;Min_cycle;Max_cycle;Signal;HPM_P1;HPM_P2
2022/07/18 00:01:07;;;;;;;2.90;1.30;;;;;;;11.44;80.84;99503.13;104836;1271;76755;-25
2022/07/18 00:03:34;;;;;;;3.40;1.10;;;;;;;11.23;81.39;99504.95;104683;1274;75938;-25
2022/07/18 00:06:01;;;;;;;1.50;1.00;;;;;;;10.98;83.16;99506.48;104816;1271;73380;-25
2022/07/18 00:08:29;;;;;;;2.20;1.30;;;;;;;11.32;82.17;99512.22;104808;1273;62028;-25
2022/07/18 00:10:56;;;;;;;2.50;1.10;;;;;;;11.73;80.47;99509.23;104708;1271;61198;-25
2022/07/18 00:13:23;;;;;;;8.80;1.00;;;;;;;11.69;80.20;99504.33;104715;1274;76552;-25
2022/07/18 00:15:51;;;;;;;1.10;0.90;;;;;;;11.53;80.50;99506.67;104799;1271;77456;-25
2022/07/18 00:18:21;;;;;;;1.40;1.00;;;;;;;11.23;81.75;99509.83;104736;1274;74425;-24
2022/07/18 00:20:50;;;;;;;2.40;1.00;;;;;;;11.03;83.08;99508.21;104768;1271;63378;-25
2022/07/18 00:23:17;;;;;;;2.40;1.00;;;;;;;11.46;81.90;99513.65;104765;1271;61153;-25
2022/07/18 00:25:44;;;;;;;1.10;0.90;;;;;;;11.88;79.51;99515.37;104788;1271;76932;-25
2022/07/18 00:28:14;;;;;;;1.40;0.90;;;;;;;11.84;78.73;99516.20;104975;1271;76694;-25
2022/07/18 00:30:43;;;;;;;3.90;1.10;;;;;;;11.58;79.97;99513.40;104577;1274;75505;-24
2022/07/18 00:33:10;;;;;;;3.80;1.00;;;;;;;11.34;80.40;99517.13;104875;1274;61748;-24
2022/07/18 00:35:37;;;;;;;3.70;0.70;;;;;;;11.13;81.21;99516.45;104721;1274;61174;-24
2022/07/18 00:38:05;;;;;;;1.70;0.90;;;;;;;11.43;80.72;99520.11;104584;1274;76563;-25
2022/07/18 00:40:34;;;;;;;1.40;1.00;;;;;;;11.81;79.03;99516.77;104627;1274;76728;-24
2022/07/18 00:43:01;;;;;;;1.90;1.10;;;;;;;11.76;78.43;99513.70;104608;1274;75111;-25
2022/07/18 00:45:35;;;;;;;1.10;0.90;;;;;;;11.50;78.95;99515.89;104592;1274;60994;-25
2022/07/18 00:48:06;;;;;;;2.60;1.20;;;;;;;11.20;80.14;99518.52;104700;1274;63227;-24
2022/07/18 00:50:34;;;;;;;1.60;0.80;;;;;;;11.00;81.41;99519.73;104290;1274;76772;-25
2022/07/18 00:53:05;;;;;;;3.00;1.20;;;;;;;11.33;80.79;99515.14;104735;1274;76446;-25
2022/07/18 00:55:32;;;;;;;1.80;1.00;;;;;;;11.75;79.05;99518.50;104771;1274;75351;-25
2022/07/18 00:58:00;;;;;;;3.60;1.00;;;;;;;11.72;77.98;99514.20;104562;1274;62650;-25
2022/07/18 01:03:14;;;;;;;1.50;1.00;;;;;;;11.07;80.20;99516.95;104644;1274;75359;-25
2022/07/18 01:05:41;;;;;;;3.30;0.90;;;;;;;10.76;81.41;99519.06;104701;1274;76933;-24
2022/07/18 01:08:08;;;;;;;3.30;0.80;;;;;;;11.00;81.22;99518.13;104575;1274;74360;-24
2022/07/18 01:10:36;;;;;;;2.50;1.00;;;;;;;11.28;79.90;99513.04;104808;1273;61152;-25
2022/07/18 01:13:03;;;;;;;1.90;0.90;;;;;;;11.23;79.94;99516.23;104814;1274;62986;-25
2022/07/18 01:15:31;;;;;;;2.20;1.10;;;;;;;11.05;80.52;99510.48;104591;1274;75424;-24
2022/07/18 01:17:58;;;;;;;1.50;1.00;;;;;;;10.80;81.87;99510.63;104857;1274;76760;-24
2022/07/18 01:20:27;;;;;;;3.20;1.00;;;;;;;10.56;83.53;99512.01;104665;1274;75372;-24
2022/07/18 01:22:54;;;;;;;1.90;1.00;;;;;;;11.04;81.92;99513.87;104698;1272;61811;-25
2022/07/18 01:25:22;;;;;;;1.80;0.90;;;;;;;11.40;80.21;99515.83;104597;1274;63163;-25
2022/07/18 01:27:50;;;;;;;2.90;0.80;;;;;;;11.38;79.73;99514.23;104728;1274;75272;-25
2022/07/18 01:30:18;;;;;;;1.20;0.90;;;;;;;11.19;79.99;99516.68;104588;1274;76437;-25
2022/07/18 01:32:45;;;;;;;2.70;1.00;;;;;;;10.99;80.57;99518.92;104693;1274;74595;-24
2022/07/18 01:35:12;;;;;;;1.20;1.00;;;;;;;10.79;81.54;99519.35;104586;1274;64637;-25
2022/07/18 01:37:40;;;;;;;2.80;1.10;;;;;;;11.14;80.87;99518.50;104723;1274;61161;-25
2022/07/18 01:40:09;;;;;;;1.60;1.00;;;;;;;11.45;78.95;99527.61;104576;1274;75885;-24
2022/07/18 01:42:36;;;;;;;3.20;0.90;;;;;;;11.33;78.83;99529.02;104758;1274;76744;-26
2022/07/18 01:45:04;;;;;;;1.90;1.10;;;;;;;11.03;79.44;99536.00;104570;1274;74603;-24
2022/07/18 01:47:32;;;;;;;1.60;1.10;;;;;;;10.74;80.69;99533.95;104616;1274;61884;-24
2022/07/18 01:49:59;;;;;;;1.10;0.70;;;;;;;10.51;82.09;99540.52;104874;1274;63117;-25
2022/07/18 01:52:26;;;;;;;4.30;0.90;;;;;;;10.83;81.69;99535.58;104771;1274;74582;-25
2022/07/18 01:54:54;;;;;;;3.80;0.80;;;;;;;11.19;79.63;99537.73;104770;1274;77088;-23
2022/07/18 01:57:21;;;;;;;3.20;1.00;;;;;;;11.15;79.51;99541.36;104584;1274;75594;-24
2022/07/18 01:59:49;;;;;;;2.30;1.00;;;;;;;10.96;80.13;99539.49;104585;1274;61630;-23
2022/07/18 02:02:23;;;;;;;2.60;0.90;;;;;;;10.67;81.02;99542.98;104541;1277;63217;-23
2022/07/18 02:04:59;;;;;;;1.50;0.60;;;;;;;10.42;82.35;99546.90;104713;1274;76337;-23
2022/07/18 02:07:31;;;;;;;3.30;0.90;;;;;;;10.75;81.54;99548.30;104921;1274;76108;-23
2022/07/18 02:09:59;;;;;;;1.50;1.00;;;;;;;11.04;80.03;99546.84;105155;1274;75643;-23
2022/07/18 02:12:29;;;;;;;1.70;1.20;;;;;;;10.91;80.11;99547.31;104989;1274;62026;-24
2022/07/18 02:14:56;;;;;;;7.70;1.00;;;;;;;10.63;81.08;99552.13;104701;1274;61680;-24
2022/07/18 02:17:24;;;;;;;1.00;0.90;;;;;;;10.32;82.18;99560.77;104716;1274;76432;-23
2022/07/18 02:19:51;;;;;;;1.10;0.70;;;;;;;10.14;83.18;99559.15;104604;1274;76907;-23
2022/07/18 02:22:20;;;;;;;2.50;1.00;;;;;;;10.48;83.07;99559.11;104748;1274;75636;-24
2022/07/18 02:24:51;;;;;;;2.30;1.10;;;;;;;10.88;80.82;99562.28;104628;1274;62997;-23
2022/07/18 02:27:19;;;;;;;1.40;0.90;;;;;;;10.83;80.58;99560.89;104686;1274;61183;-23
2022/07/18 02:29:46;;;;;;;3.10;1.90;;;;;;;10.63;81.16;99559.41;104639;1274;75485;-24
2022/07/18 02:32:14;;;;;;;1.80;0.90;;;;;;;10.39;82.27;99560.48;104596;1274;76967;-24
2022/07/18 02:34:41;;;;;;;1.50;0.80;;;;;;;10.22;82.99;99561.30;104723;1274;74276;-25
2022/07/18 02:37:08;;;;;;;2.60;0.90;;;;;;;10.65;81.90;99562.80;104703;1274;63014;-24
2022/07/18 02:39:36;;;;;;;1.30;0.90;;;;;;;11.13;79.57;99565.59;104697;1273;62932;-24
2022/07/18 02:42:05;;;;;;;2.00;1.10;;;;;;;11.15;79.08;99565.70;104687;1274;75268;-23
2022/07/18 02:44:33;;;;;;;1.70;1.00;;;;;;;10.96;79.26;99562.02;104683;1274;74978;-23
2022/07/18 02:47:01;;;;;;;1.40;1.10;;;;;;;10.82;80.08;99564.61;104998;1274;75590;-23
2022/07/18 02:49:29;;;;;;;1.40;0.80;;;;;;;10.82;80.35;99563.10;104855;1271;64440;-24
2022/07/18 02:51:57;;;;;;;1.30;0.70;;;;;;;11.40;78.51;99565.32;104723;1271;61148;-24
2022/07/18 02:54:27;;;;;;;1.30;0.70;;;;;;;12.11;75.59;99566.66;104710;1271;76445;-23
2022/07/18 02:56:55;;;;;;;0.80;0.80;;;;;;;12.34;74.56;99564.86;104754;1271;76920;-24
2022/07/18 02:59:22;;;;;;;1.40;1.00;;;;;;;12.25;74.07;99567.27;104756;1274;75372;-24
2022/07/18 03:01:50;;;;;;;1.20;1.10;;;;;;;12.14;74.57;99570.92;104867;1271;63143;-24
2022/07/18 03:04:17;;;;;;;2.10;1.00;;;;;;;12.06;75.07;99571.42;104850;1271;63078;-24
2022/07/18 03:06:46;;;;;;;6.20;0.80;;;;;;;11.99;75.37;99575.94;104689;1274;75702;-25
2022/07/18 03:09:13;;;;;;;1.60;0.90;;;;;;;12.52;74.10;99577.86;104837;1271;77070;-25
2022/07/18 03:11:41;;;;;;;1.40;1.00;;;;;;;13.11;71.96;99575.84;104726;1273;74611;-25
2022/07/18 03:14:08;;;;;;;2.60;1.30;;;;;;;13.22;71.15;99577.22;104699;1271;62113;-25
2022/07/18 03:16:36;;;;;;;2.50;1.60;;;;;;;13.08;71.57;99577.83;104618;1274;62429;-26
2022/07/18 03:19:03;;;;;;;1.70;1.00;;;;;;;12.88;72.08;99577.55;104718;1274;76323;-25
2022/07/18 03:21:31;;;;;;;3.40;1.30;;;;;;;12.70;73.03;99584.09;104767;1272;76711;-25
2022/07/18 03:23:58;;;;;;;1.20;0.60;;;;;;;12.56;73.66;99588.05;104726;1274;75403;-25
2022/07/18 03:26:25;;;;;;;1.70;0.80;;;;;;;12.96;72.74;99592.39;104746;1271;61728;-25
2022/07/18 03:28:53;;;;;;;2.50;1.20;;;;;;;13.30;71.35;99589.25;104629;1274;61220;-26
2022/07/18 03:31:21;;;;;;;2.20;0.90;;;;;;;13.38;71.38;99587.16;104926;1271;76307;-25
2022/07/18 03:33:48;;;;;;;5.20;1.20;;;;;;;13.15;72.16;99593.96;104626;1274;77096;-25
2022/07/18 03:36:16;;;;;;;1.20;0.90;;;;;;;12.92;73.34;99593.77;104604;1274;73394;-25
2022/07/18 03:38:46;;;;;;;3.80;1.10;;;;;;;12.93;73.93;99591.56;104618;1274;63236;-25
2022/07/18 03:41:15;;;;;;;1.20;0.80;;;;;;;12.85;74.83;99595.58;104640;1274;63169;-25
2022/07/18 03:43:42;;;;;;;1.70;0.70;;;;;;;13.32;73.50;99593.23;104600;1274;76640;-25
2022/07/18 03:46:10;;;;;;;2.20;0.70;;;;;;;13.91;71.65;99595.67;104700;1274;76974;-25
2022/07/18 03:48:38;;;;;;;3.10;1.10;;;;;;;14.01;71.27;99595.08;104725;1274;73992;-25
2022/07/18 03:51:06;;;;;;;1.50;0.90;;;;;;;13.94;71.08;99595.52;104552;1274;62091;-25
2022/07/18 03:53:33;;;;;;;3.10;0.90;;;;;;;13.74;72.26;99595.65;104585;1275;62936;-25
2022/07/18 03:56:01;;;;;;;0.90;0.80;;;;;;;13.62;72.86;99597.73;104616;1274;76565;-26
2022/07/18 03:58:28;;;;;;;2.10;0.80;;;;;;;13.67;72.86;99597.19;104874;1274;77254;-25
2022/07/18 04:00:56;;;;;;;3.10;1.00;;;;;;;13.99;72.34;99598.98;104910;1274;75242;-25
2022/07/18 04:03:24;;;;;;;5.80;1.10;;;;;;;14.44;70.62;99594.52;104813;1274;62677;-25
2022/07/18 04:05:51;;;;;;;2.70;1.00;;;;;;;14.57;70.26;99595.11;104729;1274;62100;-25
2022/07/18 04:08:19;;;;;;;2.80;0.80;;;;;;;14.51;70.53;99597.05;104622;1274;76581;-25
2022/07/18 04:10:46;;;;;;;3.00;1.10;;;;;;;14.40;71.53;99594.67;104570;1274;75954;-25
2022/07/18 04:13:14;;;;;;;1.30;1.00;;;;;;;14.09;72.55;99598.61;104648;1274;74634;-25
2022/07/18 04:15:41;;;;;;;1.70;1.00;;;;;;;14.05;72.81;99597.02;104704;1274;61109;-25
2022/07/18 04:18:09;;;;;;;1.80;1.00;;;;;;;14.16;73.36;99594.73;104686;1272;62729;-25
2022/07/18 04:20:38;;;;;;;3.20;0.90;;;;;;;14.70;71.08;99596.80;104637;1274;75666;-24
2022/07/18 04:23:07;;;;;;;1.80;0.80;;;;;;;14.92;69.93;99597.46;104637;1271;77007;-25
2022/07/18 04:25:39;;;;;;;4.00;1.20;;;;;;;14.91;69.76;99599.45;104624;1274;73126;-24
2022/07/18 04:28:08;;;;;;;3.80;1.10;;;;;;;14.80;70.70;99602.36;104650;1274;62012;-24
2022/07/18 04:30:35;;;;;;;2.20;1.00;;;;;;;14.57;71.96;99599.84;104414;1274;61995;-24
2022/07/18 04:33:04;;;;;;;1.60;0.90;;;;;;;14.39;71.69;99604.21;104812;1271;76637;-24
2022/07/18 04:35:31;;;;;;;2.60;0.70;;;;;;;14.25;72.66;99605.23;104680;1274;76965;-24
2022/07/18 04:37:59;;;;;;;4.10;0.90;;;;;;;14.32;72.61;99605.16;104694;1274;75358;-24
2022/07/18 04:40:26;;;;;;;1.00;0.80;;;;;;;14.76;70.88;99605.87;104693;1274;61747;-24
2022/07/18 04:42:57;;;;;;;3.70;0.90;;;;;;;14.86;70.72;99610.52;104644;1274;61276;-24
2022/07/18 04:45:25;;;;;;;6.20;1.00;;;;;;;14.85;70.55;99613.47;104695;1274;75551;-24
2022/07/18 04:47:54;;;;;;;2.10;0.90;;;;;;;14.65;71.61;99612.44;104617;1274;75973;-24
2022/07/18 04:50:24;;;;;;;1.50;1.00;;;;;;;14.41;71.65;99611.21;104635;1274;74253;-24
2022/07/18 04:52:52;;;;;;;2.10;1.00;;;;;;;14.47;72.14;99617.84;104703;1274;62108;-24
2022/07/18 04:55:21;;;;;;;1.20;0.80;;;;;;;14.50;72.18;99613.24;104663;1274;63048;-24
2022/07/18 04:57:49;;;;;;;8.60;0.90;;;;;;;14.96;70.91;99620.00;104675;1274;76644;-24
2022/07/18 05:00:20;;;;;;;5.50;1.00;;;;;;;15.35;68.91;99612.76;104653;1274;76752;-24
2022/07/18 05:02:49;;;;;;;3.40;1.10;;;;;;;15.26;69.42;99612.92;104640;1273;74138;-24
2022/07/18 05:05:17;;;;;;;1.90;1.00;;;;;;;15.22;69.70;99611.15;104675;1274;62685;-24
2022/07/18 05:07:45;;;;;;;3.40;0.90;;;;;;;15.15;69.70;99613.18;104598;1274;62808;-24
2022/07/18 05:10:15;;;;;;;3.20;1.00;;;;;;;15.11;70.14;99609.73;104324;1274;75440;-24
2022/07/18 05:12:44;;;;;;;3.30;1.10;;;;;;;14.95;70.48;99615.36;104626;1274;74980;-24
2022/07/18 05:15:14;;;;;;;4.20;1.10;;;;;;;15.10;70.50;99616.65;104637;1274;74675;-25
2022/07/18 05:17:41;;;;;;;3.60;0.90;;;;;;;15.17;70.13;99616.99;104641;1274;63600;-24
2022/07/18 05:20:10;;;;;;;1.50;0.80;;;;;;;15.63;69.13;99615.23;104595;1274;61933;-24
2022/07/18 05:22:38;;;;;;;2.70;0.80;;;;;;;16.14;66.47;99618.42;104674;1274;75333;-24
2022/07/18 05:25:06;;;;;;;3.10;0.90;;;;;;;16.34;66.19;99623.68;104607;1274;77034;-24
2022/07/18 05:27:34;;;;;;;1.70;0.80;;;;;;;16.41;66.56;99624.58;104710;1274;75421;-24
2022/07/18 05:30:04;;;;;;;1.10;1.00;;;;;;;16.36;66.04;99625.05;104736;1274;61640;-24
2022/07/18 05:32:32;;;;;;;4.60;0.90;;;;;;;16.02;66.02;99623.90;104660;1271;63620;-24
2022/07/18 05:34:59;;;;;;;3.20;0.80;;;;;;;15.94;67.52;99625.04;104625;1271;76210;-24
2022/07/18 05:37:27;;;;;;;1.70;1.00;;;;;;;15.89;67.84;99625.45;104721;1271;76985;-24
2022/07/18 05:39:54;;;;;;;3.10;0.90;;;;;;;15.98;67.51;99624.09;104681;1274;74345;-24
2022/07/18 05:42:21;;;;;;;2.30;1.00;;;;;;;16.06;68.44;99622.98;104586;1271;63265;-24
2022/07/18 05:45:09;;;;;;;3.80;1.00;;;;;;;15.88;67.25;99624.30;104665;1274;62090;-24
2022/07/18 05:47:37;;;;;;;0.80;0.70;;;;;;;15.86;68.04;99628.50;104807;1274;77097;-24
2022/07/18 05:50:06;;;;;;;1.10;0.70;;;;;;;15.84;67.51;99624.14;104814;1272;76434;-24
2022/07/18 05:52:34;;;;;;;1.00;0.80;;;;;;;15.82;67.42;99626.60;104664;1271;75191;-24
2022/07/18 05:55:02;;;;;;;3.50;0.80;;;;;;;15.85;67.70;99624.11;104811;1272;63061;-24
2022/07/18 05:57:30;;;;;;;4.40;0.80;;;;;;;15.88;67.19;99624.83;104680;1271;62946;-24
2022/07/18 05:59:57;;;;;;;3.20;0.90;;;;;;;16.06;67.72;99620.59;104754;1271;76350;-24
2022/07/18 06:02:26;;;;;;;1.70;1.00;;;;;;;16.00;67.05;99619.90;104754;1271;77041;-24
2022/07/18 06:04:53;;;;;;;8.70;1.50;;;;;;;15.98;67.14;99619.72;104787;1271;75418;-24
2022/07/18 06:07:40;;;;;;;2.20;0.80;;;;;;;16.62;65.18;99623.72;104721;1271;63075;-24
2022/07/18 06:10:09;;;;;;;2.20;0.60;;;;;;;17.10;63.65;99619.27;104829;1271;62748;-24
2022/07/18 06:12:36;;;;;;;1.80;0.80;;;;;;;17.23;63.02;99618.38;104597;1271;75063;-24
2022/07/18 06:15:05;;;;;;;1.80;0.70;;;;;;;17.12;62.53;99615.38;104635;1274;75924;-24
2022/07/18 06:17:34;;;;;;;1.20;0.70;;;;;;;17.13;63.85;99617.46;104651;1271;74315;-24
2022/07/18 06:20:05;;;;;;;10.80;2.00;;;;;;;17.04;63.30;99617.80;104736;1271;61655;-24
2022/07/18 06:22:32;;;;;;;1.60;0.60;;;;;;;17.01;63.31;99620.81;104691;1274;63063;-24
2022/07/18 06:25:01;;;;;;;2.40;0.80;;;;;;;16.99;63.68;99618.23;104629;1271;76641;-24
2022/07/18 06:27:28;;;;;;;2.80;0.70;;;;;;;16.93;63.68;99621.42;104770;1271;75606;-24
2022/07/18 06:29:55;;;;;;;1.10;0.70;;;;;;;16.89;64.00;99618.36;104704;1274;74263;-24
2022/07/18 06:32:23;;;;;;;2.40;0.80;;;;;;;16.80;64.30;99617.97;104688;1272;61726;-25
2022/07/18 06:34:50;;;;;;;1.00;0.60;;;;;;;16.87;64.88;99610.26;104621;1271;61759;-23
2022/07/18 06:37:18;;;;;;;5.70;1.30;;;;;;;17.05;64.15;99609.54;104765;1274;75431;-23
2022/07/18 06:39:45;;;;;;;0.60;0.60;;;;;;;16.97;63.99;99609.55;104592;1274;75699;-24
2022/07/18 06:42:12;;;;;;;1.70;0.70;;;;;;;16.95;64.56;99608.80;104732;1271;73164;-24
2022/07/18 06:44:41;;;;;;;1.80;0.80;;;;;;;17.04;63.44;99610.20;104756;1271;63180;-24
2022/07/18 06:47:08;;;;;;;6.80;1.00;;;;;;;17.11;63.50;99607.92;104721;1274;62042;-25
2022/07/18 06:49:36;;;;;;;1.70;0.90;;;;;;;17.26;63.70;99607.36;104766;1274;76290;-24
2022/07/18 06:52:03;;;;;;;3.30;0.70;;;;;;;17.17;62.17;99600.70;104773;1272;75593;-24
2022/07/18 06:54:33;;;;;;;4.80;1.00;;;;;;;17.07;62.90;99604.08;104786;1271;74382;-24
2022/07/18 06:57:06;;;;;;;1.90;0.80;;;;;;;17.13;62.43;99606.38;104812;1271;63693;-23
2022/07/18 06:59:34;;;;;;;2.10;0.90;;;;;;;17.28;61.71;99606.96;104726;1271;62827;-23
2022/07/18 07:02:02;;;;;;;1.10;0.70;;;;;;;17.41;61.03;99601.75;104837;1271;76568;-23
2022/07/18 07:04:29;;;;;;;1.70;0.60;;;;;;;17.51;60.82;99601.86;104748;1271;77430;-24
2022/07/18 07:06:57;;;;;;;14.00;1.10;;;;;;;17.73;60.63;99597.39;104738;1272;75563;-24
2022/07/18 07:09:25;;;;;;;1.40;0.80;;;;;;;17.72;59.46;99599.23;104666;1271;63061;-25
2022/07/18 07:11:53;;;;;;;0.70;0.60;;;;;;;17.60;60.61;99602.16;104786;1274;62791;-25
2022/07/18 07:14:21;;;;;;;1.10;0.70;;;;;;;17.86;59.90;99599.11;104682;1271;76585;-25
2022/07/18 07:16:49;;;;;;;1.10;0.80;;;;;;;18.00;58.02;99594.12;104760;1271;76779;-25
2022/07/18 07:19:17;;;;;;;2.60;0.70;;;;;;;17.95;57.47;99591.91;104756;1271;74707;-25
2022/07/18 07:21:44;;;;;;;0.70;0.70;;;;;;;17.95;56.56;99588.23;104720;1274;62066;-25
2022/07/18 07:24:13;;;;;;;0.70;0.60;;;;;;;17.92;56.41;99591.94;105126;1274;61121;-25
2022/07/18 07:26:40;;;;;;;0.80;0.60;;;;;;;17.99;56.22;99584.35;105109;1272;76635;-25
2022/07/18 07:29:08;;;;;;;0.70;0.60;;;;;;;18.07;56.37;99592.60;104900;1274;76919;-24
2022/07/18 07:31:36;;;;;;;1.60;0.50;;;;;;;18.08;56.78;99587.64;104607;1272;75362;-24
2022/07/18 07:34:03;;;;;;;4.10;0.70;;;;;;;18.44;56.56;99592.31;104624;1274;62794;-24
2022/07/18 07:36:32;;;;;;;0.80;0.50;;;;;;;18.39;56.05;99595.30;104730;1272;61972;-24
2022/07/18 07:39:00;;;;;;;1.40;0.60;;;;;;;18.40;55.51;99597.77;104604;1271;75464;-25
2022/07/18 07:41:28;;;;;;;2.20;0.70;;;;;;;18.45;55.53;99590.06;104771;1274;76167;-24
2022/07/18 07:43:55;;;;;;;0.90;0.50;;;;;;;18.40;55.60;99592.08;104678;1274;75629;-24
2022/07/18 07:46:23;;;;;;;1.80;0.50;;;;;;;18.42;56.85;99597.38;104629;1274;63056;-24
2022/07/18 07:48:51;;;;;;;1.30;0.50;;;;;;;18.84;55.71;99599.88;104607;1271;386892;-24
2022/07/18 07:51:18;;;;;;;0.80;0.50;;;;;;;18.85;54.62;99594.95;104772;1271;75434;-24
2022/07/18 07:53:51;;;;;;;0.50;0.40;;;;;;;18.99;54.82;99597.56;104596;1274;75789;-24
2022/07/18 07:56:19;;;;;;;2.20;0.80;;;;;;;19.11;53.91;99598.27;104595;1274;75702;-24
2022/07/18 07:58:48;;;;;;;0.80;0.60;;;;;;;19.20;53.99;99597.21;104768;1272;62024;-24
2022/07/18 08:01:19;;;;;;;1.90;0.50;;;;;;;18.78;54.58;99593.80;104700;1273;61831;-24
2022/07/18 08:03:48;;;;;;;2.00;0.80;;;;;;;18.45;54.71;99601.30;104785;1274;76592;-24
2022/07/18 08:06:16;;;;;;;2.20;0.50;;;;;;;18.76;54.09;99597.17;104851;1272;76767;-24
2022/07/18 08:08:43;;;;;;;2.30;0.70;;;;;;;19.13;53.95;99595.58;104693;1271;75687;-24
2022/07/18 08:11:14;;;;;;;0.50;0.40;;;;;;;19.56;53.79;99592.08;104740;1274;62027;-24
2022/07/18 08:13:42;;;;;;;0.90;0.60;;;;;;;19.74;51.77;99587.41;104948;1272;62020;-24
2022/07/18 08:16:09;;;;;;;0.80;0.50;;;;;;;19.63;52.46;99590.43;105045;1273;75287;-24
2022/07/18 08:18:37;;;;;;;0.60;0.50;;;;;;;19.51;51.57;99588.05;104809;1272;77812;-26
2022/07/18 08:21:04;;;;;;;2.80;0.70;;;;;;;19.09;51.49;99590.67;104615;1275;75523;-25
2022/07/18 08:23:33;;;;;;;0.70;0.50;;;;;;;19.44;52.06;99591.77;104742;1274;63056;-25
2022/07/18 08:26:00;;;;;;;0.50;0.40;;;;;;;19.74;52.18;99595.24;104707;1274;61772;-25
2022/07/18 08:28:27;;;;;;;8.70;0.80;;;;;;;19.78;50.84;99583.27;104739;1272;76681;-25
2022/07/18 08:30:55;;;;;;;1.40;0.40;;;;;;;19.51;50.96;99587.82;104764;1271;77088;-24
2022/07/18 08:33:22;;;;;;;0.60;0.50;;;;;;;19.07;51.75;99590.91;105075;1271;73116;-25
2022/07/18 08:35:50;;;;;;;1.00;0.50;;;;;;;19.54;53.19;99589.51;104811;1274;62486;-24
2022/07/18 08:38:19;;;;;;;0.80;0.70;;;;;;;19.85;51.18;99596.10;104709;1274;63303;-24
2022/07/18 08:40:47;;;;;;;0.40;0.40;;;;;;;20.25;50.39;99577.73;104713;1271;75592;-24
2022/07/18 08:43:15;;;;;;;0.70;0.60;;;;;;;20.10;48.64;99593.25;104743;1274;75980;-24
2022/07/18 08:45:52;;;;;;;1.40;0.50;;;;;;;19.83;49.45;99594.09;104839;1272;75560;-25
2022/07/18 08:48:19;;;;;;;1.80;0.70;;;;;;;20.00;49.76;99594.35;104770;1274;61823;-24
2022/07/18 08:50:48;;;;;;;0.70;0.50;;;;;;;20.21;48.64;99588.98;104848;1271;61872;-24
2022/07/18 08:53:16;;;;;;;13.80;0.90;;;;;;;19.88;48.58;99595.98;104907;1272;76413;-24
2022/07/18 08:55:44;;;;;;;1.00;0.40;;;;;;;19.83;49.77;99596.16;104772;1272;77104;-22
2022/07/18 08:58:12;;;;;;;4.40;0.80;;;;;;;20.08;47.59;99587.81;105149;1271;75478;-23
2022/07/18 09:00:59;;;;;;;1.50;0.60;;;;;;;20.34;48.14;99593.52;104984;1271;63061;-23
2022/07/18 09:03:27;;;;;;;1.10;0.60;;;;;;;20.15;47.54;99595.91;105126;1271;61999;-23
2022/07/18 09:06:09;;;;;;;1.20;0.60;;;;;;;20.27;48.47;99601.02;105112;1271;76565;-23
2022/07/18 09:08:56;;;;;;;1.30;0.40;;;;;;;20.65;47.33;99592.21;104458;1271;75974;-24
2022/07/18 09:11:24;;;;;;;1.40;0.50;;;;;;;20.57;47.40;99591.24;104770;1274;75049;-23
2022/07/18 09:14:31;;;;;;;2.00;0.60;;;;;;;20.51;46.57;99594.38;104597;1271;63129;-23
2022/07/18 09:17:03;;;;;;;1.90;0.50;;;;;;;20.74;45.80;99593.88;105060;1273;63163;-23
2022/07/18 09:19:31;;;;;;;0.50;0.50;;;;;;;20.93;46.66;99595.21;104682;1271;75532;-23
2022/07/18 09:22:18;;;;;;;0.50;0.40;;;;;;;20.74;45.42;99594.20;104776;1274;77043;-23
2022/07/18 09:24:53;;;;;;;0.40;0.40;;;;;;;20.18;45.14;99594.79;104624;1271;74819;-23
2022/07/18 09:27:28;;;;;;;0.50;0.40;;;;;;;20.14;46.12;99592.39;104653;1271;61781;-23
2022/07/18 09:30:21;;;;;;;0.60;0.50;;;;;;;20.25;46.97;99590.95;104699;1274;62713;-24
2022/07/18 09:32:51;;;;;;;1.80;0.40;;;;;;;20.80;47.65;99590.36;105039;1271;76296;-24
2022/07/18 09:35:26;;;;;;;0.60;0.40;;;;;;;20.83;47.08;99591.58;104731;1271;77231;-24
2022/07/18 09:37:56;;;;;;;0.40;0.40;;;;;;;20.11;46.42;99593.61;104692;1271;75441;-24
2022/07/18 09:40:50;;;;;;;1.10;0.50;;;;;;;20.49;47.49;99598.31;104637;1272;61861;-24
2022/07/18 09:43:19;;;;;;;0.50;0.50;;;;;;;20.94;46.08;99588.88;104915;1273;61115;-24
2022/07/18 09:45:51;;;;;;;9.60;0.90;;;;;;;21.04;45.73;99585.48;104753;1274;76583;-24
2022/07/18 09:48:20;;;;;;;0.60;0.60;;;;;;;20.70;46.98;99591.88;104737;1272;76990;-25
2022/07/18 09:51:06;;;;;;;1.00;0.60;;;;;;;20.45;46.38;99597.19;104607;1271;75421;-24
2022/07/18 09:53:35;;;;;;;0.40;0.30;;;;;;;20.80;45.91;99580.90;104737;1273;61208;-24
2022/07/18 09:56:14;;;;;;;0.70;0.40;;;;;;;21.27;45.20;99596.54;104668;1274;61989;-24
2022/07/18 09:58:49;;;;;;;0.50;0.40;;;;;;;21.45;44.66;99594.23;104720;1271;75551;-24
2022/07/18 10:01:17;;;;;;;0.40;0.30;;;;;;;21.27;42.90;99587.50;104876;1271;77085;-24
2022/07/18 10:03:44;;;;;;;1.20;0.40;;;;;;;21.67;43.83;99589.05;105135;1274;75451;-24
2022/07/18 10:06:12;;;;;;;1.00;0.70;;;;;;;21.82;43.85;99590.64;104713;1275;61138;-24
2022/07/18 10:08:40;;;;;;;3.20;0.60;;;;;;;21.84;44.07;99590.17;104663;1271;61159;-24
2022/07/18 10:11:07;;;;;;;0.80;0.40;;;;;;;22.14;44.49;99589.98;104649;1271;76551;-24
2022/07/18 10:13:37;;;;;;;0.30;0.30;;;;;;;21.58;44.20;99591.96;104783;1275;75698;-24
2022/07/18 10:16:05;;;;;;;0.50;0.40;;;;;;;20.86;44.81;99593.22;104923;1274;74072;-25
2022/07/18 10:18:33;;;;;;;1.80;0.50;;;;;;;21.43;45.11;99592.89;104685;1271;63123;-25
2022/07/18 10:21:12;;;;;;;0.30;0.30;;;;;;;22.05;44.02;99588.87;104693;1271;62165;-25
2022/07/18 10:23:39;;;;;;;0.30;0.30;;;;;;;21.71;42.30;99583.25;104666;1271;74936;-25
2022/07/18 10:26:18;;;;;;;0.60;0.40;;;;;;;21.96;42.84;99587.91;104805;1274;76361;-25
2022/07/18 10:28:55;;;;;;;0.60;0.30;;;;;;;22.30;40.99;99587.52;104755;1272;74525;-25
2022/07/18 10:31:26;;;;;;;0.60;0.40;;;;;;;22.46;40.33;99579.37;104901;1271;63065;-25
2022/07/18 10:34:05;;;;;;;0.40;0.40;;;;;;;22.53;40.27;99571.97;104713;1272;61211;-25
2022/07/18 10:36:33;;;;;;;1.90;0.40;;;;;;;22.11;39.47;99567.18;104722;1274;76558;-25
2022/07/18 10:39:23;;;;;;;2.10;0.60;;;;;;;22.27;39.84;99572.24;104810;1274;77124;-25
2022/07/18 10:41:54;;;;;;;1.10;0.40;;;;;;;22.47;39.04;99571.99;104933;1271;73066;-25
2022/07/18 10:44:30;;;;;;;0.80;0.50;;;;;;;21.71;41.07;99574.44;104962;1273;63046;-25
2022/07/18 10:47:11;;;;;;;5.00;0.60;;;;;;;21.57;38.90;99568.66;104786;1271;61125;-25
2022/07/18 10:49:48;;;;;;;0.90;0.50;;;;;;;21.73;38.97;99572.21;104679;1272;76327;-25
2022/07/18 10:52:27;;;;;;;3.50;0.60;;;;;;;22.13;37.72;99559.29;104786;1271;76031;-25
2022/07/18 10:55:22;;;;;;;10.20;0.60;;;;;;;21.47;39.19;99574.31;104668;1271;75199;-24
2022/07/18 10:57:49;;;;;;;;;;;;;;;21.27;40.87;99577.10;104753;1271;61808;-25
2022/07/18 11:00:23;;;;;;;1.10;0.40;;;;;;;21.19;41.89;99575.64;104762;1273;62712;-24
2022/07/18 11:03:00;;;;;;;0.40;0.30;;;;;;;21.12;42.28;99571.31;104665;1271;76650;-24
2022/07/18 11:05:27;;;;;;;0.90;0.50;;;;;;;21.24;42.83;99573.80;104995;1271;77094;-24
2022/07/18 11:08:01;;;;;;;0.40;0.30;;;;;;;21.60;41.99;99569.70;105055;1271;74464;-24
2022/07/18 11:10:41;;;;;;;0.40;0.30;;;;;;;21.65;41.50;99572.45;105141;1272;62055;-24
2022/07/18 11:13:31;;;;;;;0.70;0.40;;;;;;;21.08;41.64;99570.91;104977;1271;62908;-24
2022/07/18 11:16:25;;;;;;;1.50;0.40;;;;;;;20.27;43.68;99573.52;104790;1274;75569;-25
2022/07/18 11:18:55;;;;;;;0.80;0.60;;;;;;;19.87;44.79;99578.67;105103;1271;76794;-24
2022/07/18 11:21:24;;;;;;;0.70;0.60;;;;;;;19.75;45.92;99582.36;105092;1271;75381;-25
2022/07/18 11:24:02;;;;;;;0.60;0.40;;;;;;;19.65;46.86;99581.08;105059;1272;63205;-26
2022/07/18 11:26:30;;;;;;;0.80;0.40;;;;;;;19.69;47.59;99582.58;104727;1274;61013;-26
2022/07/18 11:29:09;;;;;;;0.80;0.40;;;;;;;19.64;47.03;99579.27;104621;1274;76673;-25
2022/07/18 11:31:49;;;;;;;0.80;0.50;;;;;;;19.50;47.13;99584.66;104622;1274;76998;-25
2022/07/18 11:34:17;;;;;;;2.70;0.60;;;;;;;19.42;47.44;99581.14;104488;1275;75628;-26
2022/07/18 11:36:50;;;;;;;0.60;0.50;;;;;;;19.56;46.68;99581.18;104706;1274;61016;-25
2022/07/18 11:39:29;;;;;;;0.60;0.60;;;;;;;19.73;47.28;99580.19;104622;1274;61975;-25